Time;durP1;ratioP1;P1;durP2;ratioP2;P2;SDS_P1;SDS_P2;PMS_P1;PMS_P2;Temp;Humidity;BMP_temperature;BMP_pressure;BME280_temperature;BME280_humidity;BME280_pressure;Samples;Min_cycle;Max_cycle;Signal;HPM_P1;HPM_P2
2021/09/26 00:01:24;;;;;;;1.12;0.50;;;;;;;15.31;79.38;99464.69;1777397;79;21166;-51
2021/09/26 00:03:52;;;;;;;0.82;0.53;;;;;;;15.31;79.44;99463.33;1777006;79;22621;-51
2021/09/26 00:06:18;;;;;;;1.05;0.80;;;;;;;15.33;79.48;99469.52;1781170;79;20936;-50
2021/09/26 00:08:45;;;;;;;2.30;0.70;;;;;;;15.33;79.51;99468.66;1778506;79;20917;-51
2021/09/26 00:11:11;;;;;;;0.80;0.80;;;;;;;15.33;79.54;99476.78;1771620;79;21371;-51
2021/09/26 00:13:39;;;;;;;2.62;0.62;;;;;;;15.33;79.54;99474.95;1770484;79;21503;-51
2021/09/26 00:16:06;;;;;;;0.88;0.50;;;;;;;15.32;79.53;99477.76;1767064;79;21485;-51
2021/09/26 00:18:32;;;;;;;0.90;0.50;;;;;;;15.31;79.58;99473.34;1767413;80;21536;-51
2021/09/26 00:20:59;;;;;;;4.92;0.75;;;;;;;15.31;79.66;99475.53;1791625;79;21115;-51
2021/09/26 00:23:25;;;;;;;1.30;0.60;;;;;;;15.32;79.66;99472.34;1798083;79;21004;-51
2021/09/26 00:25:53;;;;;;;0.90;0.60;;;;;;;15.30;79.71;99476.55;1761397;79;21054;-51
2021/09/26 00:28:21;;;;;;;0.68;0.50;;;;;;;15.31;79.77;99480.13;1764866;80;22285;-50
2021/09/26 00:30:47;;;;;;;2.45;0.60;;;;;;;15.32;79.78;99477.76;1770909;79;21455;-51
2021/09/26 00:33:14;;;;;;;0.95;0.78;;;;;;;15.31;79.82;99471.98;1795636;79;21554;-51
2021/09/26 00:35:41;;;;;;;2.60;0.70;;;;;;;15.29;79.80;99471.22;1765303;79;21055;-50
2021/09/26 00:38:08;;;;;;;3.60;0.70;;;;;;;15.26;79.80;99470.95;1764085;80;21055;-51
2021/09/26 00:40:35;;;;;;;1.82;0.70;;;;;;;15.22;79.83;99486.20;1769253;79;21073;-51
2021/09/26 00:43:02;;;;;;;1.82;0.62;;;;;;;15.19;79.90;99487.77;1767571;80;21117;-51
2021/09/26 00:45:28;;;;;;;0.78;0.70;;;;;;;15.14;80.00;99489.46;1795222;78;21076;-51
2021/09/26 00:47:54;;;;;;;2.77;0.82;;;;;;;15.10;80.03;99491.52;1765567;80;21116;-50
2021/09/26 00:50:20;;;;;;;0.60;0.60;;;;;;;15.09;80.15;99494.33;1769378;79;21093;-50
2021/09/26 00:52:47;;;;;;;1.02;0.65;;;;;;;15.08;80.29;99492.09;1778440;79;21110;-51
2021/09/26 00:55:14;;;;;;;0.78;0.70;;;;;;;15.09;80.36;99496.55;1780029;78;21026;-50
2021/09/26 00:57:42;;;;;;;0.70;0.70;;;;;;;15.10;80.36;99494.70;1782521;79;20929;-51
2021/09/26 01:00:10;;;;;;;0.98;0.62;;;;;;;15.11;80.41;99501.38;1782801;79;20921;-51
2021/09/26 01:02:36;;;;;;;0.85;0.72;;;;;;;15.11;80.42;99505.45;1781488;79;21784;-51
2021/09/26 01:05:04;;;;;;;0.70;0.70;;;;;;;15.11;80.43;99505.45;1779090;79;21096;-51
2021/09/26 01:07:36;;;;;;;1.72;0.70;;;;;;;15.10;80.44;99503.71;1786042;79;21353;-51
2021/09/26 01:10:07;;;;;;;1.07;0.70;;;;;;;15.10;80.47;99512.33;1782467;79;21070;-51
2021/09/26 01:12:55;;;;;;;1.30;0.70;;;;;;;15.09;80.49;99505.16;1781814;79;21137;-51
2021/09/26 01:15:52;;;;;;;1.10;0.62;;;;;;;15.07;80.51;99509.34;1776295;79;21076;-51
2021/09/26 01:18:52;;;;;;;0.88;0.68;;;;;;;15.07;80.54;99510.69;1779675;79;21410;-51
2021/09/26 01:21:33;;;;;;;2.10;0.57;;;;;;;15.09;80.61;99510.10;1780722;79;21081;-52
2021/09/26 01:24:13;;;;;;;1.20;0.75;;;;;;;15.10;80.56;99515.91;1782087;79;21025;-51
2021/09/26 01:27:05;;;;;;;1.22;0.60;;;;;;;15.09;80.57;99516.88;1775576;79;20958;-52
2021/09/26 01:30:13;;;;;;;1.17;0.90;;;;;;;15.09;80.55;99516.02;1766569;80;21754;-52
2021/09/26 01:32:39;;;;;;;1.55;0.80;;;;;;;15.07;80.52;99517.47;1748495;80;21664;-51
2021/09/26 01:35:09;;;;;;;1.35;0.70;;;;;;;15.06;80.49;99525.70;1736037;80;22268;-51
2021/09/26 01:37:45;;;;;;;0.98;0.60;;;;;;;15.05;80.47;99524.86;1782269;79;21048;-52
2021/09/26 01:40:32;;;;;;;2.20;0.60;;;;;;;15.04;80.48;99523.13;1751268;79;21072;-51
2021/09/26 01:43:04;;;;;;;1.30;0.65;;;;;;;15.02;80.42;99522.84;1783595;79;21547;-51
2021/09/26 01:45:52;;;;;;;0.90;0.70;;;;;;;15.01;80.46;99527.39;1780244;79;21217;-51
2021/09/26 01:48:39;;;;;;;0.78;0.60;;;;;;;14.99;80.46;99533.41;1782926;79;21092;-51
2021/09/26 01:51:05;;;;;;;0.78;0.70;;;;;;;14.96;80.53;99536.83;1779749;79;22554;-51
2021/09/26 01:53:31;;;;;;;1.62;0.70;;;;;;;14.94;80.54;99542.84;1780903;79;22318;-52
2021/09/26 01:55:58;;;;;;;2.80;0.80;;;;;;;14.92;80.56;99544.78;1783353;79;21078;-51
2021/09/26 01:58:24;;;;;;;0.75;0.70;;;;;;;14.89;80.59;99543.63;1783193;79;21123;-51
2021/09/26 02:00:50;;;;;;;1.30;0.60;;;;;;;14.87;80.68;99549.17;1780667;79;21065;-51
2021/09/26 02:03:18;;;;;;;0.78;0.75;;;;;;;14.87;80.71;99557.30;1762045;79;21054;-51
2021/09/26 02:05:45;;;;;;;1.17;0.60;;;;;;;14.86;80.68;99558.28;1770185;80;20907;-51
2021/09/26 02:08:12;;;;;;;2.00;0.70;;;;;;;14.83;80.62;99562.54;1785973;78;20971;-51
2021/09/26 02:10:39;;;;;;;3.72;0.62;;;;;;;14.79;80.50;99550.19;1756490;80;21731;-52
2021/09/26 02:13:06;;;;;;;4.42;0.78;;;;;;;14.78;80.40;99563.35;1800350;79;20938;-51
2021/09/26 02:15:32;;;;;;;5.22;0.70;;;;;;;14.75;80.23;99556.30;1795159;79;20932;-51
2021/09/26 02:18:01;;;;;;;1.77;0.70;;;;;;;14.73;80.01;99554.17;1770272;80;20987;-51
2021/09/26 02:20:27;;;;;;;2.27;0.90;;;;;;;14.69;79.87;99555.37;1765535;80;20956;-51
2021/09/26 02:22:53;;;;;;;1.15;0.70;;;;;;;14.65;79.73;99560.59;1784485;79;21721;-51
2021/09/26 02:25:20;;;;;;;2.70;0.85;;;;;;;14.61;79.62;99566.34;1800807;77;21736;-51
2021/09/26 02:27:46;;;;;;;2.08;0.82;;;;;;;14.58;79.59;99570.59;1769653;80;20966;-51
2021/09/26 02:30:13;;;;;;;2.98;0.70;;;;;;;14.54;79.55;99579.44;1768988;80;20885;-51
2021/09/26 02:32:39;;;;;;;1.30;0.65;;;;;;;14.51;79.59;99582.82;1800384;78;20950;-51
2021/09/26 02:35:07;;;;;;;1.42;0.65;;;;;;;14.49;79.61;99588.34;1770764;80;21762;-52
2021/09/26 02:37:33;;;;;;;1.17;0.70;;;;;;;14.48;79.58;99591.14;1799992;78;20930;-51
2021/09/26 02:40:00;;;;;;;1.77;0.93;;;;;;;14.45;79.52;99584.11;1768076;80;21030;-52
2021/09/26 02:42:35;;;;;;;1.52;0.80;;;;;;;14.42;79.47;99586.14;1759510;79;20927;-51
2021/09/26 02:45:21;;;;;;;2.45;1.00;;;;;;;14.38;79.41;99588.14;1783726;79;20939;-51
2021/09/26 02:47:53;;;;;;;5.45;0.70;;;;;;;14.34;79.35;99588.84;1784968;79;21503;-51
2021/09/26 02:50:20;;;;;;;3.70;0.70;;;;;;;14.29;79.25;99592.32;1788893;79;20999;-51
2021/09/26 02:52:47;;;;;;;3.90;0.60;;;;;;;14.24;79.24;99594.95;1764364;79;21051;-51
2021/09/26 02:55:14;;;;;;;2.30;0.60;;;;;;;14.21;79.19;99604.14;1737917;80;21055;-51
2021/09/26 02:57:41;;;;;;;0.80;0.60;;;;;;;14.16;79.27;99609.00;1766423;79;21323;-52
2021/09/26 03:00:09;;;;;;;3.65;0.70;;;;;;;14.14;79.31;99604.16;1742312;79;23278;-51
2021/09/26 03:02:35;;;;;;;5.30;0.80;;;;;;;14.15;79.33;99604.55;1767461;80;20986;-51
2021/09/26 03:05:01;;;;;;;1.32;0.90;;;;;;;14.14;79.32;99607.34;1794438;77;21101;-51
2021/09/26 03:07:28;;;;;;;2.37;0.80;;;;;;;14.10;79.36;99606.70;1779137;78;21084;-52
2021/09/26 03:09:54;;;;;;;1.02;0.70;;;;;;;14.10;79.35;99612.59;1778161;78;21112;-51
2021/09/26 03:12:21;;;;;;;2.95;0.82;;;;;;;14.08;79.37;99617.23;1780334;79;21453;-51
2021/09/26 03:14:49;;;;;;;1.12;0.70;;;;;;;14.07;79.33;99619.55;1779842;79;21786;-52
2021/09/26 03:17:15;;;;;;;1.87;0.60;;;;;;;14.05;79.42;99610.66;1778860;79;21761;-52
2021/09/26 03:19:41;;;;;;;1.95;0.70;;;;;;;14.04;79.43;99613.84;1783417;79;21107;-51
2021/09/26 03:22:08;;;;;;;2.20;0.70;;;;;;;14.03;79.44;99613.97;1781955;79;21057;-51
2021/09/26 03:24:35;;;;;;;1.65;0.60;;;;;;;14.03;79.44;99613.48;1799669;77;21686;-51
2021/09/26 03:27:03;;;;;;;2.70;0.88;;;;;;;14.03;79.45;99609.42;1778423;79;21597;-51
2021/09/26 03:29:32;;;;;;;1.65;0.70;;;;;;;14.03;79.41;99615.67;1779079;79;21053;-52
2021/09/26 03:32:00;;;;;;;1.90;1.00;;;;;;;14.04;79.41;99621.95;1781036;79;21495;-51
2021/09/26 03:34:27;;;;;;;3.22;1.00;;;;;;;14.03;79.38;99621.60;1782168;79;20916;-51
2021/09/26 03:36:53;;;;;;;1.55;0.85;;;;;;;13.99;79.36;99628.16;1782019;79;21708;-51
2021/09/26 03:39:19;;;;;;;2.05;0.80;;;;;;;13.97;79.39;99631.44;1783907;79;21412;-51
2021/09/26 03:41:45;;;;;;;2.42;0.80;;;;;;;13.94;79.43;99634.37;1777216;79;21426;-51
2021/09/26 03:44:12;;;;;;;1.55;0.70;;;;;;;13.89;79.48;99634.64;1778428;79;21046;-51
2021/09/26 03:46:38;;;;;;;4.90;0.78;;;;;;;13.85;79.53;99626.35;1778335;79;21064;-52
2021/09/26 03:49:05;;;;;;;4.05;1.05;;;;;;;13.85;79.62;99635.82;1779706;79;21651;-52
2021/09/26 03:51:31;;;;;;;5.00;1.15;;;;;;;13.85;79.62;99636.30;1780093;79;21609;-51
2021/09/26 03:53:58;;;;;;;5.10;0.82;;;;;;;13.84;79.54;99642.20;1777325;79;21025;-51
2021/09/26 03:56:24;;;;;;;3.70;0.90;;;;;;;13.81;79.57;99636.09;1776520;79;21102;-51
2021/09/26 03:58:50;;;;;;;5.12;0.80;;;;;;;13.81;79.52;99646.91;1780584;79;21088;-51
2021/09/26 04:01:17;;;;;;;3.02;0.80;;;;;;;13.76;79.44;99643.16;1777072;78;22047;-51
2021/09/26 04:03:43;;;;;;;2.15;0.70;;;;;;;13.71;79.42;99637.16;1780124;79;21070;-51
2021/09/26 04:06:10;;;;;;;2.00;0.70;;;;;;;13.69;79.48;99647.23;1766008;79;21120;-51
2021/09/26 04:08:38;;;;;;;2.62;0.82;;;;;;;13.69;79.48;99642.30;1767738;79;21713;-51
2021/09/26 04:11:08;;;;;;;3.98;1.10;;;;;;;13.67;79.51;99649.15;1777861;79;21087;-52
2021/09/26 04:13:34;;;;;;;1.60;0.70;;;;;;;13.67;79.52;99651.86;1772387;79;21763;-51
2021/09/26 04:16:00;;;;;;;4.65;0.70;;;;;;;13.66;79.55;99648.76;1782748;79;20897;-51
2021/09/26 04:18:27;;;;;;;1.45;0.70;;;;;;;13.68;79.59;99645.96;1775432;79;21755;-51
2021/09/26 04:20:53;;;;;;;1.90;0.85;;;;;;;13.67;79.50;99647.80;1786348;79;20941;-51
2021/09/26 04:23:19;;;;;;;2.80;0.90;;;;;;;13.67;79.58;99644.22;1769898;79;20985;-51
2021/09/26 04:25:46;;;;;;;6.92;0.80;;;;;;;13.66;79.54;99641.13;1787983;79;22552;-51
2021/09/26 04:28:12;;;;;;;1.50;0.80;;;;;;;13.63;79.55;99640.83;1798715;79;20941;-52
2021/09/26 04:30:38;;;;;;;1.72;0.80;;;;;;;13.58;79.56;99646.53;1794228;77;21061;-52
2021/09/26 04:33:06;;;;;;;1.98;0.70;;;;;;;13.58;79.61;99651.07;1780819;79;21519;-51
2021/09/26 04:35:32;;;;;;;7.25;1.57;;;;;;;13.57;79.71;99666.91;1796215;79;21332;-51
2021/09/26 04:37:58;;;;;;;3.45;0.70;;;;;;;13.57;79.85;99668.26;1797610;79;21575;-51
2021/09/26 04:40:25;;;;;;;4.70;0.80;;;;;;;13.58;79.89;99674.06;1793597;79;21363;-51
2021/09/26 04:42:51;;;;;;;4.80;0.90;;;;;;;13.59;79.95;99682.08;1781433;79;21588;-51
2021/09/26 04:45:18;;;;;;;3.15;1.40;;;;;;;13.61;80.00;99676.55;1763587;79;21111;-51
2021/09/26 04:47:44;;;;;;;4.70;0.98;;;;;;;13.62;79.99;99676.46;1793687;79;21097;-52
2021/09/26 04:50:11;;;;;;;3.75;1.17;;;;;;;13.62;80.01;99678.30;1793404;79;21798;-51
2021/09/26 04:52:38;;;;;;;3.08;0.90;;;;;;;13.62;80.02;99680.52;1766289;79;21108;-51
2021/09/26 04:55:06;;;;;;;5.28;1.00;;;;;;;13.64;80.06;99681.78;1766531;79;21136;-52
2021/09/26 04:57:32;;;;;;;3.72;0.80;;;;;;;13.64;80.10;99681.30;1782195;79;21073;-51
2021/09/26 04:59:58;;;;;;;1.85;0.70;;;;;;;13.67;80.12;99692.91;1792969;79;21117;-52
2021/09/26 05:02:24;;;;;;;4.47;0.72;;;;;;;13.71;80.11;99695.31;1796015;79;21189;-51
2021/09/26 05:04:51;;;;;;;2.75;0.70;;;;;;;13.75;80.06;99695.52;1796785;78;21391;-51
2021/09/26 05:07:17;;;;;;;3.27;1.10;;;;;;;13.77;79.96;99698.14;1763950;80;21516;-51
2021/09/26 05:09:44;;;;;;;1.98;0.80;;;;;;;13.80;79.97;99696.58;1763734;79;22134;-52
2021/09/26 05:12:10;;;;;;;6.67;0.82;;;;;;;13.83;79.92;99699.97;1739494;80;21487;-51
2021/09/26 05:14:36;;;;;;;2.60;1.40;;;;;;;13.87;79.78;99699.28;1752979;80;21206;-52
2021/09/26 05:19:54;;;;;;;2.60;0.77;;;;;;;13.96;79.38;99694.16;1785679;78;26187;-52
2021/09/26 05:22:21;;;;;;;6.60;1.15;;;;;;;13.92;79.13;99698.05;1768198;80;20981;-52
2021/09/26 05:24:47;;;;;;;2.85;0.90;;;;;;;13.94;79.03;99692.06;1771058;80;22187;-52
2021/09/26 05:27:13;;;;;;;2.50;0.80;;;;;;;13.96;78.93;99693.30;1768948;80;21099;-52
2021/09/26 05:29:40;;;;;;;2.40;0.80;;;;;;;13.97;78.91;99693.69;1768830;80;21072;-52
2021/09/26 05:32:08;;;;;;;3.77;1.15;;;;;;;13.99;78.78;99702.10;1750465;80;21102;-51
2021/09/26 05:34:35;;;;;;;5.28;1.30;;;;;;;14.03;78.73;99705.98;1734223;81;21113;-52
2021/09/26 05:37:01;;;;;;;5.20;1.35;;;;;;;14.08;78.62;99714.66;1737442;81;21202;-52
2021/09/26 05:39:28;;;;;;;4.47;1.40;;;;;;;14.10;78.47;99714.97;1738781;81;21528;-52
2021/09/26 05:41:55;;;;;;;3.67;1.10;;;;;;;14.11;78.25;99719.41;1737130;81;21499;-52
2021/09/26 05:44:21;;;;;;;2.85;0.82;;;;;;;14.11;78.15;99729.38;1735538;81;21385;-52
2021/09/26 05:46:47;;;;;;;4.90;1.47;;;;;;;14.12;77.93;99720.29;1745645;81;21143;-52
2021/09/26 05:49:14;;;;;;;4.78;1.00;;;;;;;14.14;77.94;99719.20;1736165;81;21037;-52
2021/09/26 05:51:40;;;;;;;3.83;0.70;;;;;;;14.22;77.77;99729.06;1741171;81;21144;-52
2021/09/26 05:54:06;;;;;;;5.92;1.55;;;;;;;14.30;77.60;99733.98;1739691;81;21320;-52
2021/09/26 05:56:32;;;;;;;2.62;1.10;;;;;;;14.36;77.25;99725.01;1734974;81;21097;-52
2021/09/26 05:58:59;;;;;;;5.03;1.00;;;;;;;14.39;76.95;99731.59;1735631;81;21113;-52
2021/09/26 06:01:25;;;;;;;4.67;0.90;;;;;;;14.43;76.75;99730.05;1739472;81;21089;-52
2021/09/26 06:03:51;;;;;;;3.00;0.85;;;;;;;14.44;76.54;99728.61;1736207;81;21603;-52
2021/09/26 06:06:18;;;;;;;3.25;1.00;;;;;;;14.46;76.30;99729.35;1740255;81;21375;-52
2021/09/26 06:08:44;;;;;;;5.62;0.70;;;;;;;14.50;76.20;99735.45;1739226;81;21049;-51
2021/09/26 06:11:10;;;;;;;3.10;0.80;;;;;;;14.51;75.83;99735.84;1737272;81;21124;-51
2021/09/26 06:13:36;;;;;;;5.65;1.07;;;;;;;14.53;75.59;99739.33;1736300;81;21158;-51
2021/09/26 06:16:03;;;;;;;6.20;1.00;;;;;;;14.52;75.29;99744.36;1736716;81;21687;-52
2021/09/26 06:18:30;;;;;;;4.00;0.68;;;;;;;14.52;74.88;99747.06;1733569;81;21062;-52
2021/09/26 06:20:56;;;;;;;5.75;0.80;;;;;;;14.51;74.48;99742.13;1723778;82;21099;-52
2021/09/26 06:23:22;;;;;;;5.37;0.78;;;;;;;14.50;74.38;99756.64;1724752;82;21631;-51
2021/09/26 06:25:49;;;;;;;3.52;0.82;;;;;;;14.51;74.09;99753.45;1725847;82;21075;-52
2021/09/26 06:28:15;;;;;;;5.17;0.80;;;;;;;14.57;73.85;99743.56;1722024;82;21101;-52
2021/09/26 06:30:41;;;;;;;3.08;0.90;;;;;;;14.61;73.67;99744.64;1720084;82;21109;-52
2021/09/26 06:33:08;;;;;;;7.90;0.90;;;;;;;14.65;73.28;99749.35;1720263;82;21086;-52
2021/09/26 06:35:34;;;;;;;6.70;1.37;;;;;;;14.70;72.65;99755.36;1721875;82;22708;-52
2021/09/26 06:38:00;;;;;;;8.48;0.90;;;;;;;14.76;72.34;99753.12;1725227;82;21662;-52
2021/09/26 06:40:30;;;;;;;10.43;0.90;;;;;;;14.81;71.97;99753.28;1720454;82;21769;-52
2021/09/26 06:42:57;;;;;;;8.98;1.00;;;;;;;14.82;71.77;99757.73;1724609;82;21417;-51
2021/09/26 06:45:23;;;;;;;3.80;0.80;;;;;;;14.82;71.45;99765.38;1724487;82;21110;-52
2021/09/26 06:47:49;;;;;;;5.35;1.25;;;;;;;14.80;71.29;99756.48;1726897;82;21089;-52
2021/09/26 06:50:15;;;;;;;3.52;0.80;;;;;;;14.80;71.18;99763.25;1724457;82;21180;-52
2021/09/26 06:52:41;;;;;;;7.55;0.90;;;;;;;14.82;71.32;99765.38;1723401;82;21094;-52
2021/09/26 06:55:09;;;;;;;5.15;0.80;;;;;;;14.87;71.46;99771.87;1721409;82;21114;-52
2021/09/26 06:57:35;;;;;;;4.10;0.90;;;;;;;14.91;70.87;99771.56;1722122;81;21054;-52
2021/09/26 07:00:06;;;;;;;3.83;0.82;;;;;;;14.92;70.68;99773.78;1720574;82;21113;-52
2021/09/26 07:02:33;;;;;;;8.53;1.10;;;;;;;14.93;69.91;99776.41;1722824;82;21158;-52
2021/09/26 07:04:59;;;;;;;3.22;0.80;;;;;;;14.91;69.79;99774.75;1723644;82;21722;-51
2021/09/26 07:07:26;;;;;;;3.10;0.90;;;;;;;14.90;69.79;99768.45;1720064;82;21500;-51
2021/09/26 07:09:52;;;;;;;4.15;0.75;;;;;;;14.91;70.09;99767.98;1723129;82;20880;-51
2021/09/26 07:12:19;;;;;;;4.72;0.90;;;;;;;14.97;70.28;99770.30;1727337;82;20939;-52
2021/09/26 07:14:45;;;;;;;6.05;0.80;;;;;;;15.06;70.35;99777.31;1727001;82;22121;-52
2021/09/26 07:17:12;;;;;;;4.30;0.80;;;;;;;15.12;70.18;99778.29;1725342;82;20994;-52
2021/09/26 07:19:38;;;;;;;4.80;0.80;;;;;;;15.21;69.58;99775.45;1724921;82;20967;-52
2021/09/26 07:22:05;;;;;;;9.00;1.25;;;;;;;15.26;69.32;99772.42;1727879;82;20979;-52
2021/09/26 07:24:31;;;;;;;7.03;1.00;;;;;;;15.31;68.77;99769.77;1724056;82;22231;-51
2021/09/26 07:26:58;;;;;;;3.58;0.62;;;;;;;15.33;68.20;99773.25;1722130;81;21111;-51
2021/09/26 07:29:24;;;;;;;6.00;0.98;;;;;;;15.36;67.89;99781.68;1719140;82;21061;-52
2021/09/26 07:31:50;;;;;;;9.25;0.90;;;;;;;15.38;67.39;99771.61;1723521;82;21615;-52
2021/09/26 07:34:17;;;;;;;3.98;0.70;;;;;;;15.40;66.95;99776.41;1724126;82;21065;-52
2021/09/26 07:36:44;;;;;;;4.80;0.90;;;;;;;15.40;66.71;99782.71;1725035;82;20994;-52
2021/09/26 07:39:10;;;;;;;6.12;0.95;;;;;;;15.42;66.18;99785.33;1723442;82;21536;-52
2021/09/26 07:41:37;;;;;;;5.40;0.78;;;;;;;15.47;65.99;99779.99;1723236;82;21057;-52
2021/09/26 07:44:04;;;;;;;6.42;0.75;;;;;;;15.56;65.54;99791.23;1722320;82;21129;-52
2021/09/26 07:46:30;;;;;;;3.62;0.75;;;;;;;15.64;65.67;99788.86;1720568;82;21121;-52
2021/09/26 07:48:57;;;;;;;3.33;0.78;;;;;;;15.73;65.55;99800.44;1723268;82;21049;-53
2021/09/26 07:51:23;;;;;;;3.65;0.90;;;;;;;15.81;65.15;99798.94;1724948;82;21155;-51
2021/09/26 07:53:50;;;;;;;3.45;0.70;;;;;;;15.87;64.38;99794.44;1721656;82;21026;-51
2021/09/26 07:56:16;;;;;;;9.95;1.20;;;;;;;15.89;64.20;99805.19;1716646;82;21171;-52
2021/09/26 07:58:42;;;;;;;4.65;1.00;;;;;;;15.87;64.12;99807.13;1722091;82;21924;-52
2021/09/26 08:01:09;;;;;;;4.35;1.00;;;;;;;15.85;64.00;99811.30;1724345;82;21121;-52
2021/09/26 08:03:35;;;;;;;4.30;1.27;;;;;;;15.84;64.02;99804.63;1724939;81;21154;-52
2021/09/26 08:06:01;;;;;;;7.70;1.00;;;;;;;15.85;64.00;99805.88;1724084;82;21093;-52
2021/09/26 08:08:28;;;;;;;10.00;0.90;;;;;;;15.88;64.03;99808.88;1724613;82;21488;-52
2021/09/26 08:10:54;;;;;;;5.03;0.90;;;;;;;15.85;63.20;99809.95;1724529;82;21044;-52
2021/09/26 08:13:21;;;;;;;5.40;0.80;;;;;;;15.82;62.40;99807.44;1720801;82;21137;-52
2021/09/26 08:15:47;;;;;;;8.78;1.00;;;;;;;15.77;62.43;99807.38;1723985;82;21159;-52
2021/09/26 08:18:14;;;;;;;6.55;0.98;;;;;;;15.74;62.84;99817.08;1717140;81;21149;-51
2021/09/26 08:20:40;;;;;;;6.78;0.75;;;;;;;15.74;62.43;99817.08;1724533;82;21629;-52
2021/09/26 08:23:07;;;;;;;4.87;0.88;;;;;;;15.72;61.67;99813.62;1722978;81;21085;-52
2021/09/26 08:25:34;;;;;;;5.90;0.70;;;;;;;15.73;61.71;99808.09;1725279;82;21098;-52
2021/09/26 08:28:01;;;;;;;8.48;1.30;;;;;;;15.77;61.96;99818.23;1723792;82;21066;-52
2021/09/26 08:30:27;;;;;;;3.40;0.93;;;;;;;15.84;61.94;99814.12;1727625;81;21088;-52
2021/09/26 08:32:54;;;;;;;4.45;0.70;;;;;;;15.92;61.91;99814.95;1725901;82;21531;-52
2021/09/26 08:35:21;;;;;;;5.67;0.80;;;;;;;16.00;60.96;99809.85;1723336;82;21439;-52
2021/09/26 08:37:50;;;;;;;5.37;0.68;;;;;;;16.06;60.46;99802.17;1721293;82;21073;-53
2021/09/26 08:40:16;;;;;;;7.58;0.70;;;;;;;16.10;59.95;99828.12;1719695;81;21125;-52
2021/09/26 08:42:42;;;;;;;5.60;0.70;;;;;;;16.11;59.06;99813.57;1721390;82;21110;-51
2021/09/26 08:45:14;;;;;;;6.58;0.80;;;;;;;16.09;58.95;99810.57;1723359;82;21054;-52
2021/09/26 08:47:41;;;;;;;4.30;0.98;;;;;;;16.08;58.23;99815.62;1728138;82;21392;-52
2021/09/26 08:50:09;;;;;;;6.55;0.80;;;;;;;16.09;57.91;99814.64;1725929;82;20985;-52
2021/09/26 08:52:38;;;;;;;9.15;0.70;;;;;;;16.11;57.68;99808.63;1725564;82;21106;-52
2021/09/26 08:55:04;;;;;;;6.83;1.02;;;;;;;16.18;57.73;99809.92;1724638;82;21006;-52
2021/09/26 08:57:33;;;;;;;5.25;0.65;;;;;;;16.20;57.76;99814.28;1722273;82;22302;-52
2021/09/26 09:00:00;;;;;;;5.20;1.10;;;;;;;16.28;58.08;99815.10;1723076;82;21425;-53
2021/09/26 09:02:27;;;;;;;6.33;0.70;;;;;;;16.37;57.63;99813.58;1725452;82;22065;-52
2021/09/26 09:04:53;;;;;;;4.08;0.70;;;;;;;16.40;57.36;99814.25;1727363;82;21544;-52
2021/09/26 09:07:19;;;;;;;4.37;0.70;;;;;;;16.46;56.26;99811.56;1720812;82;21046;-52
2021/09/26 09:09:57;;;;;;;10.00;1.00;;;;;;;16.46;55.54;99812.92;1723910;82;21042;-52
2021/09/26 09:12:29;;;;;;;3.62;0.55;;;;;;;16.49;55.91;99804.57;1725035;82;21058;-52
2021/09/26 09:15:07;;;;;;;4.83;0.60;;;;;;;16.53;55.85;99805.58;1724558;82;21485;-52
2021/09/26 09:17:36;;;;;;;3.75;0.80;;;;;;;16.58;55.32;99812.93;1729503;81;21098;-52
2021/09/26 09:20:26;;;;;;;4.22;0.70;;;;;;;16.64;55.62;99801.64;1727309;82;21041;-53
2021/09/26 09:23:00;;;;;;;3.12;0.47;;;;;;;16.71;55.40;99806.14;1727653;82;20908;-52
2021/09/26 09:25:39;;;;;;;3.95;0.70;;;;;;;16.78;54.84;99799.76;1724246;82;21680;-52
2021/09/26 09:28:10;;;;;;;5.58;0.80;;;;;;;16.81;54.59;99797.70;1724736;82;20974;-51
2021/09/26 09:30:50;;;;;;;5.50;1.10;;;;;;;16.87;54.77;99800.45;1722818;82;21799;-53
2021/09/26 09:33:18;;;;;;;4.87;0.75;;;;;;;16.93;54.68;99790.47;1726740;82;20911;-52
2021/09/26 09:35:48;;;;;;;5.83;0.98;;;;;;;17.01;54.76;99793.00;1664512;84;21952;-52
2021/09/26 09:38:30;;;;;;;2.15;0.50;;;;;;;17.07;54.28;99794.91;1727852;82;22405;-52
2021/09/26 09:40:56;;;;;;;6.05;0.80;;;;;;;17.12;53.95;99802.22;1725001;82;21091;-52
2021/09/26 09:43:23;;;;;;;3.40;0.70;;;;;;;17.14;53.17;99799.78;1720645;82;22367;-52
2021/09/26 09:45:59;;;;;;;3.15;0.60;;;;;;;17.19;53.20;99805.73;1722283;82;21090;-53
2021/09/26 09:48:27;;;;;;;2.67;0.60;;;;;;;17.25;53.73;99796.27;1721428;82;21089;-52
2021/09/26 09:51:05;;;;;;;5.42;0.88;;;;;;;17.31;53.39;99802.10;1725317;82;21300;-52
2021/09/26 09:53:37;;;;;;;4.80;0.82;;;;;;;17.31;52.96;99795.30;1732318;82;20963;-53
2021/09/26 09:56:14;;;;;;;5.20;0.68;;;;;;;17.27;53.35;99807.88;1730172;82;22166;-52
2021/09/26 09:58:50;;;;;;;4.67;0.90;;;;;;;17.23;52.82;99801.81;1729655;82;21429;-52
2021/09/26 10:01:32;;;;;;;7.92;0.70;;;;;;;17.24;52.55;99807.63;1719950;81;21058;-52
2021/09/26 10:04:06;;;;;;;4.10;0.78;;;;;;;17.24;52.84;99802.69;1730150;82;20928;-52
2021/09/26 10:06:36;;;;;;;5.58;0.60;;;;;;;17.25;52.92;99805.78;1728970;82;20895;-52
2021/09/26 10:09:23;;;;;;;4.95;1.30;;;;;;;17.23;52.88;99802.30;1731106;81;22450;-52
2021/09/26 10:12:01;;;;;;;7.95;2.35;;;;;;;17.21;52.47;99819.22;1724337;82;21099;-52
2021/09/26 10:14:33;;;;;;;7.00;2.00;;;;;;;17.20;52.40;99819.70;1730046;82;21046;-53
2021/09/26 10:17:02;;;;;;;2.70;0.80;;;;;;;17.17;52.66;99817.73;1728767;82;21105;-52
2021/09/26 10:19:29;;;;;;;8.70;2.65;;;;;;;17.17;52.38;99824.04;1730789;82;22204;-51
2021/09/26 10:21:57;;;;;;;2.70;0.70;;;;;;;17.20;52.07;99821.56;1728011;82;21525;-51
2021/09/26 10:24:27;;;;;;;5.78;0.78;;;;;;;17.16;51.98;99825.02;1725062;82;21508;-53
2021/09/26 10:26:54;;;;;;;2.85;0.50;;;;;;;17.16;51.79;99821.42;1724668;82;20975;-52
2021/09/26 10:29:21;;;;;;;6.55;0.95;;;;;;;17.14;51.45;99819.30;1726889;81;21014;-52
2021/09/26 10:31:48;;;;;;;3.45;0.60;;;;;;;17.15;51.61;99815.61;1729687;82;20990;-52
2021/09/26 10:34:16;;;;;;;3.45;0.60;;;;;;;17.16;51.64;99815.50;1725428;82;23340;-52
2021/09/26 10:36:42;;;;;;;5.30;0.53;;;;;;;17.21;51.34;99819.22;1722073;82;21101;-51
2021/09/26 10:39:08;;;;;;;3.70;0.70;;;;;;;17.26;51.62;99819.28;1724443;81;21093;-52
2021/09/26 10:41:35;;;;;;;6.28;0.65;;;;;;;17.34;51.09;99811.90;1723136;82;21047;-52
2021/09/26 10:44:26;;;;;;;6.92;0.70;;;;;;;17.38;51.07;99811.53;1723399;82;21066;-52
2021/09/26 10:47:10;;;;;;;4.90;0.88;;;;;;;17.41;51.19;99807.73;1724478;82;21527;-53
2021/09/26 10:49:41;;;;;;;2.77;0.60;;;;;;;17.40;51.37;99815.02;1729074;82;21818;-52
2021/09/26 10:52:30;;;;;;;4.22;0.70;;;;;;;17.42;51.71;99818.13;1726297;82;20942;-52
2021/09/26 10:55:27;;;;;;;3.80;0.82;;;;;;;17.44;51.62;99813.44;1725810;82;20959;-52
2021/09/26 10:58:11;;;;;;;6.42;0.50;;;;;;;17.44;51.68;99821.60;1715017;82;20931;-52
2021/09/26 11:00:54;;;;;;;4.80;0.62;;;;;;;17.45;50.83;99821.45;1666809;84;21053;-52
2021/09/26 11:03:37;;;;;;;2.87;0.60;;;;;;;17.44;50.66;99803.39;1729175;82;20924;-52
2021/09/26 11:06:27;;;;;;;3.10;0.50;;;;;;;17.46;50.67;99801.43;1723634;82;20888;-53
2021/09/26 11:08:58;;;;;;;2.22;0.60;;;;;;;17.50;51.10;99802.95;1723905;82;20937;-52
2021/09/26 11:11:36;;;;;;;3.60;0.60;;;;;;;17.56;51.37;99802.47;1730163;82;21422;-53
2021/09/26 11:14:02;;;;;;;5.75;0.60;;;;;;;17.62;51.17;99802.03;1722227;82;21189;-53
2021/09/26 11:16:52;;;;;;;6.35;0.60;;;;;;;17.65;50.74;99810.47;1726879;82;21002;-52
2021/09/26 11:19:18;;;;;;;1.60;0.53;;;;;;;17.61;49.81;99796.17;1726889;82;20984;-53
2021/09/26 11:21:50;;;;;;;5.12;0.70;;;;;;;17.60;50.23;99801.27;1736093;82;20911;-53
2021/09/26 11:24:34;;;;;;;3.42;0.60;;;;;;;17.57;50.19;99796.05;1734970;80;20927;-53
2021/09/26 11:27:07;;;;;;;4.10;0.60;;;;;;;17.59;50.51;99801.38;1736655;82;21100;-53
2021/09/26 11:29:46;;;;;;;3.58;0.50;;;;;;;17.58;50.38;99807.81;1734617;82;21071;-53
2021/09/26 11:32:25;;;;;;;2.60;0.50;;;;;;;17.57;50.20;99801.98;1733756;80;21067;-52
2021/09/26 11:34:55;;;;;;;2.85;0.55;;;;;;;17.54;50.13;99804.92;1731454;82;21301;-53
2021/09/26 11:37:43;;;;;;;2.15;0.50;;;;;;;17.51;50.59;99812.86;1717259;82;21889;-53
2021/09/26 11:40:12;;;;;;;1.85;0.50;;;;;;;17.50;50.51;99806.16;1732975;82;21133;-53
2021/09/26 11:42:41;;;;;;;3.55;1.00;;;;;;;17.47;49.97;99809.11;1731099;81;21002;-52
2021/09/26 11:45:11;;;;;;;6.55;0.60;;;;;;;17.44;49.54;99810.72;1734483;82;21682;-52
2021/09/26 11:47:37;;;;;;;2.12;0.50;;;;;;;17.38;50.14;99810.17;1730425;82;21590;-52